createdAt,value
2022-09-15T00:01:50.622Z,99241.94
2022-09-15T00:03:53.504Z,99235.88
2022-09-15T00:05:56.058Z,99240.06
2022-09-15T00:07:59.000Z,99240.84
2022-09-15T00:10:01.057Z,99241.94
2022-09-15T00:12:03.120Z,99245.88
2022-09-15T00:14:08.045Z,99240.28
2022-09-15T00:16:14.808Z,99238.41
2022-09-15T00:18:17.577Z,99231.69
2022-09-15T00:20:21.981Z,99233.94
2022-09-15T00:22:24.252Z,99238.53
2022-09-15T00:24:27.707Z,99238.31
2022-09-15T00:26:30.925Z,99238.31
2022-09-15T00:28:33.058Z,99238.31
2022-09-15T00:30:34.965Z,99246.13
2022-09-15T00:32:36.887Z,99247.59
2022-09-15T00:34:38.769Z,99242.44
2022-09-15T00:36:40.886Z,99250.72
2022-09-15T00:38:42.950Z,99247.59
2022-09-15T00:40:50.532Z,99248.16
2022-09-15T00:42:52.312Z,99250.53
2022-09-15T00:45:00.719Z,99252.81
2022-09-15T00:47:18.744Z,99248.19
2022-09-15T00:49:29.740Z,99248.59
2022-09-15T00:51:37.383Z,99237.59
2022-09-15T00:53:40.822Z,99241.56
2022-09-15T00:55:47.678Z,99233.44
2022-09-15T00:58:04.211Z,99223.63
2022-09-15T01:00:12.362Z,99211.59
2022-09-15T01:02:26.744Z,99214.66
2022-09-15T01:04:28.669Z,99209.50
2022-09-15T01:06:36.497Z,99222.13
2022-09-15T01:08:51.648Z,99218.13
2022-09-15T01:10:54.693Z,99219.84
2022-09-15T01:13:01.465Z,99214.16
2022-09-15T01:15:03.897Z,99198.22
2022-09-15T01:19:38.689Z,99201.84
2022-09-15T01:22:12.331Z,99207.06
2022-09-15T01:24:35.361Z,99203.19
2022-09-15T01:26:48.275Z,99199.03
2022-09-15T01:29:21.816Z,99186.19
2022-09-15T01:31:26.069Z,99189.25
2022-09-15T01:33:52.881Z,99186.19
2022-09-15T01:36:04.627Z,99187.91
2022-09-15T01:38:32.144Z,99193.50
2022-09-15T01:40:43.291Z,99187.94
2022-09-15T01:42:48.560Z,99190.06
2022-09-15T01:44:58.369Z,99181.75
2022-09-15T01:47:06.040Z,99187.69
2022-09-15T01:49:12.288Z,99193.56
2022-09-15T01:51:14.597Z,99185.72
2022-09-15T01:53:20.860Z,99191.59
2022-09-15T01:55:38.187Z,99187.25
2022-09-15T01:57:40.041Z,99186.38
2022-09-15T01:59:44.575Z,99188.00
2022-09-15T02:01:53.315Z,99183.03
2022-09-15T02:04:01.307Z,99183.03
2022-09-15T02:06:10.516Z,99184.25
2022-09-15T02:08:29.015Z,99182.63
2022-09-15T02:10:41.308Z,99182.97
2022-09-15T02:13:03.884Z,99177.47
2022-09-15T02:15:11.681Z,99180.47
2022-09-15T02:17:17.476Z,99174.88
2022-09-15T02:19:31.384Z,99169.66
2022-09-15T02:22:10.818Z,99164.88
2022-09-15T02:24:19.983Z,99155.50
2022-09-15T02:26:26.499Z,99154.47
2022-09-15T02:28:34.509Z,99149.69
2022-09-15T02:30:41.393Z,99161.44
2022-09-15T02:32:51.734Z,99153.25
2022-09-15T02:34:58.792Z,99148.72
2022-09-15T02:37:01.942Z,99152.06
2022-09-15T02:39:08.418Z,99153.00
2022-09-15T02:41:13.197Z,99157.38
2022-09-15T02:43:17.992Z,99153.47
2022-09-15T02:45:20.924Z,99157.56
2022-09-15T02:47:23.275Z,99152.56
2022-09-15T02:49:28.139Z,99155.88
2022-09-15T02:51:31.356Z,99161.25
2022-09-15T02:53:33.361Z,99170.00
2022-09-15T02:55:36.296Z,99163.75
2022-09-15T02:57:38.097Z,99164.56
2022-09-15T02:59:59.510Z,99167.25
2022-09-15T03:02:03.582Z,99154.75
2022-09-15T03:04:07.120Z,99160.75
2022-09-15T03:06:21.296Z,99153.50
2022-09-15T03:08:23.185Z,99154.09
2022-09-15T03:10:26.607Z,99156.78
2022-09-15T03:12:28.569Z,99153.91
2022-09-15T03:14:32.685Z,99150.41
2022-09-15T03:16:36.291Z,99141.59
2022-09-15T03:18:39.305Z,99156.63
2022-09-15T03:20:41.136Z,99146.75
2022-09-15T03:22:44.994Z,99147.19
2022-09-15T03:24:46.827Z,99147.56
2022-09-15T03:26:49.523Z,99149.06
2022-09-15T03:28:51.349Z,99149.72
2022-09-15T03:30:54.386Z,99149.50
2022-09-15T03:32:56.446Z,99142.84
2022-09-15T03:34:59.445Z,99156.47
2022-09-15T03:37:04.651Z,99159.97
2022-09-15T03:39:12.945Z,99154.81
2022-09-15T03:41:14.823Z,99154.59
2022-09-15T03:43:18.722Z,99153.13
2022-09-15T03:45:20.675Z,99155.38
2022-09-15T03:47:22.618Z,99160.28
2022-09-15T03:49:25.554Z,99162.78
2022-09-15T03:51:27.439Z,99160.22
2022-09-15T03:53:37.746Z,99160.59
2022-09-15T03:55:45.647Z,99159.78
2022-09-15T03:57:47.465Z,99171.38
2022-09-15T03:59:49.457Z,99166.00
2022-09-15T04:01:51.702Z,99171.38
2022-09-15T04:03:53.687Z,99166.22
2022-09-15T04:05:56.557Z,99172.66
2022-09-15T04:08:00.089Z,99166.47
2022-09-15T04:10:02.202Z,99171.47
2022-09-15T04:12:04.620Z,99162.31
2022-09-15T04:14:06.548Z,99165.00
2022-09-15T04:16:11.581Z,99161.75
2022-09-15T04:18:14.463Z,99164.63
2022-09-15T04:20:17.399Z,99165.69
2022-09-15T04:22:20.011Z,99162.97
2022-09-15T04:24:23.781Z,99158.19
2022-09-15T04:26:28.368Z,99146.31
2022-09-15T04:28:33.830Z,99144.03
2022-09-15T04:30:37.247Z,99139.94
2022-09-15T04:32:39.137Z,99137.00
2022-09-15T04:34:43.150Z,99128.94
2022-09-15T04:36:45.417Z,99139.53
2022-09-15T04:38:50.812Z,99134.44
2022-09-15T04:40:55.680Z,99133.38
2022-09-15T04:43:01.441Z,99134.53
2022-09-15T04:45:04.638Z,99137.09
2022-09-15T04:47:10.473Z,99144.72
2022-09-15T04:49:12.986Z,99137.22
2022-09-15T04:51:22.601Z,99137.47
2022-09-15T04:53:24.495Z,99143.47
2022-09-15T04:55:27.344Z,99143.03
2022-09-15T04:57:29.166Z,99154.84
2022-09-15T04:59:37.127Z,99156.50
2022-09-15T05:01:39.130Z,99150.44
2022-09-15T05:03:41.925Z,99149.41
2022-09-15T05:05:48.172Z,99148.13
2022-09-15T05:07:50.315Z,99146.84
2022-09-15T05:09:53.402Z,99152.25
2022-09-15T05:11:55.521Z,99151.38
2022-09-15T05:14:01.404Z,99154.06
2022-09-15T05:16:15.432Z,99147.03
2022-09-15T05:18:17.442Z,99146.81
2022-09-15T05:20:19.324Z,99152.19
2022-09-15T05:22:22.139Z,99153.00
2022-09-15T05:24:25.090Z,99145.53
2022-09-15T05:26:32.124Z,99146.38
2022-09-15T05:28:36.562Z,99155.88
2022-09-15T05:30:44.134Z,99154.38
2022-09-15T05:32:47.429Z,99165.53
2022-09-15T05:34:49.341Z,99152.28
2022-09-15T05:36:51.276Z,99159.03
2022-09-15T05:38:56.826Z,99159.78
2022-09-15T05:41:03.944Z,99153.97
2022-09-15T05:43:05.889Z,99147.53
2022-09-15T05:45:08.295Z,99150.75
2022-09-15T05:47:10.650Z,99150.75
2022-09-15T05:49:12.610Z,99148.03
2022-09-15T05:51:15.844Z,99160.66
2022-09-15T05:53:18.451Z,99154.41
2022-09-15T05:55:20.324Z,99152.56
2022-09-15T05:57:24.303Z,99155.25
2022-09-15T05:59:28.867Z,99151.88
2022-09-15T06:01:31.508Z,99159.72
2022-09-15T06:03:37.613Z,99161.56
2022-09-15T06:05:39.447Z,99159.09
2022-09-15T06:07:43.301Z,99157.38
2022-09-15T06:09:45.425Z,99154.00
2022-09-15T06:11:47.344Z,99152.38
2022-09-15T06:13:51.781Z,99151.22
2022-09-15T06:15:54.755Z,99159.47
2022-09-15T06:17:56.691Z,99163.81
2022-09-15T06:20:00.603Z,99153.63
2022-09-15T06:23:55.920Z,99147.31
2022-09-15T06:26:15.344Z,99151.78
2022-09-15T06:28:17.215Z,99150.59
2022-09-15T06:30:19.223Z,99145.78
2022-09-15T06:32:21.052Z,99148.47
2022-09-15T06:34:23.015Z,99151.53
2022-09-15T06:36:28.907Z,99154.75
2022-09-15T06:38:31.750Z,99151.03
2022-09-15T06:40:34.299Z,99160.72
2022-09-15T06:42:37.181Z,99156.16
2022-09-15T06:44:38.994Z,99143.94
2022-09-15T06:46:41.798Z,99151.94
2022-09-15T06:48:48.335Z,99151.59
2022-09-15T06:50:54.118Z,99143.03
2022-09-15T06:52:56.955Z,99139.84
2022-09-15T06:54:59.316Z,99135.88
2022-09-15T06:57:01.212Z,99145.13
2022-09-15T06:59:04.316Z,99147.00
2022-09-15T07:01:12.407Z,99153.66
2022-09-15T07:03:15.289Z,99148.13
2022-09-15T07:05:17.518Z,99144.84
2022-09-15T07:07:21.397Z,99140.34
2022-09-15T07:09:23.278Z,99137.94
2022-09-15T07:11:26.142Z,99134.25
2022-09-15T07:13:30.641Z,99148.53
2022-09-15T07:15:32.820Z,99142.06
2022-09-15T07:17:34.761Z,99146.72
2022-09-15T07:19:36.747Z,99147.66
2022-09-15T07:21:38.651Z,99144.44
2022-09-15T07:23:41.414Z,99142.63
2022-09-15T07:25:45.381Z,99147.34
2022-09-15T07:27:47.343Z,99150.09
2022-09-15T07:29:49.340Z,99149.75
2022-09-15T07:31:51.230Z,99153.53
2022-09-15T07:33:53.684Z,99157.88
2022-09-15T07:35:55.659Z,99162.22
2022-09-15T07:37:58.576Z,99154.81
2022-09-15T07:40:00.626Z,99164.94
2022-09-15T07:42:02.517Z,99174.59
2022-09-15T07:44:07.462Z,99155.97
2022-09-15T07:46:09.467Z,99163.31
2022-09-15T07:48:15.653Z,99156.09
2022-09-15T07:50:19.579Z,99155.22
2022-09-15T07:52:21.482Z,99153.50
2022-09-15T07:54:23.339Z,99160.06
2022-09-15T07:56:28.319Z,99166.63
2022-09-15T07:58:33.835Z,99157.13
2022-09-15T08:00:38.186Z,99158.09
2022-09-15T08:02:41.540Z,99161.13
2022-09-15T08:04:44.448Z,99159.72
2022-09-15T08:06:46.718Z,99171.22
2022-09-15T08:08:50.412Z,99169.78
2022-09-15T08:10:53.091Z,99170.88
2022-09-15T08:12:54.925Z,99164.97
2022-09-15T08:14:56.835Z,99157.72
2022-09-15T08:17:01.355Z,99147.13
2022-09-15T08:19:06.645Z,99144.88
2022-09-15T08:21:11.481Z,99145.72
2022-09-15T08:23:13.423Z,99143.44
2022-09-15T08:25:15.344Z,99141.63
2022-09-15T08:27:19.305Z,99153.50
2022-09-15T08:29:21.279Z,99150.16
2022-09-15T08:31:24.667Z,99154.53
2022-09-15T08:33:26.975Z,99150.34
2022-09-15T08:35:32.606Z,99146.25
2022-09-15T08:37:34.625Z,99153.88
2022-09-15T08:39:36.548Z,99152.78
2022-09-15T08:41:47.073Z,99136.38
2022-09-15T08:43:58.328Z,99143.25
2022-09-15T08:46:06.442Z,99144.59
2022-09-15T08:48:15.853Z,99146.50
2022-09-15T08:50:24.704Z,99148.66
2022-09-15T08:52:36.318Z,99145.72
2022-09-15T08:54:38.615Z,99149.50
2022-09-15T08:56:43.822Z,99144.59
2022-09-15T08:58:48.186Z,99157.69
2022-09-15T09:00:58.346Z,99151.41
2022-09-15T09:03:18.900Z,99149.50
2022-09-15T09:05:22.991Z,99158.50
2022-09-15T09:07:36.135Z,99152.00
2022-09-15T09:09:59.551Z,99153.31
2022-09-15T09:12:16.401Z,99140.47
2022-09-15T09:14:43.018Z,99150.31
2022-09-15T09:17:11.818Z,99153.59
2022-09-15T09:19:42.243Z,99153.06
2022-09-15T09:22:02.185Z,99154.59
2022-09-15T09:24:12.235Z,99163.41
2022-09-15T09:26:15.683Z,99161.75
2022-09-15T09:28:46.591Z,99154.66
2022-09-15T09:30:48.873Z,99156.03
2022-09-15T09:33:09.723Z,99150.03
2022-09-15T09:35:37.694Z,99154.97
2022-09-15T09:37:40.082Z,99152.50
2022-09-15T09:39:42.753Z,99143.50
2022-09-15T09:41:45.759Z,99148.16
2022-09-15T09:43:50.016Z,99131.78
2022-09-15T09:45:53.021Z,99143.50
2022-09-15T09:48:01.776Z,99152.50
2022-09-15T09:50:25.564Z,99144.88
2022-09-15T09:52:39.078Z,99144.78
2022-09-15T09:54:42.531Z,99136.94
2022-09-15T09:56:47.522Z,99135.22
2022-09-15T09:58:49.756Z,99137.06
2022-09-15T10:00:52.993Z,99136.09
2022-09-15T10:03:30.634Z,99125.91
2022-09-15T10:05:34.728Z,99138.84
2022-09-15T10:07:41.388Z,99135.09
2022-09-15T10:09:53.790Z,99135.03
2022-09-15T10:12:02.008Z,99131.50
2022-09-15T10:14:05.061Z,99139.56
2022-09-15T10:16:07.212Z,99134.50
2022-09-15T10:18:33.842Z,99136.59
2022-09-15T10:20:54.870Z,99128.56
2022-09-15T10:23:06.559Z,99137.34
2022-09-15T10:25:20.467Z,99138.84
2022-09-15T10:27:34.810Z,99145.72
2022-09-15T10:29:40.472Z,99141.06
2022-09-15T10:31:45.133Z,99143.84
2022-09-15T10:33:47.959Z,99150.81
2022-09-15T10:35:50.642Z,99148.94
2022-09-15T10:38:12.527Z,99145.16
2022-09-15T10:40:21.144Z,99138.41
2022-09-15T10:42:49.489Z,99128.56
2022-09-15T10:45:17.344Z,99131.13
2022-09-15T10:47:54.828Z,99134.91
2022-09-15T10:50:17.275Z,99136.38
2022-09-15T10:52:47.637Z,99143.38
2022-09-15T10:54:58.213Z,99150.84
2022-09-15T10:57:55.551Z,99157.44
2022-09-15T11:00:12.405Z,99147.81
2022-09-15T11:02:43.568Z,99157.69
2022-09-15T11:05:31.093Z,99141.09
2022-09-15T11:07:50.888Z,99138.19
2022-09-15T11:10:13.949Z,99145.75
2022-09-15T11:12:36.895Z,99135.16
2022-09-15T11:14:57.564Z,99136.28
2022-09-15T11:17:18.055Z,99141.34
2022-09-15T11:19:52.045Z,99146.44
2022-09-15T11:21:59.984Z,99139.94
2022-09-15T11:24:17.027Z,99143.50
2022-09-15T11:26:33.101Z,99140.81
2022-09-15T11:28:49.321Z,99138.75
2022-09-15T11:31:01.524Z,99136.28
2022-09-15T11:33:18.117Z,99135.19
2022-09-15T11:35:36.920Z,99138.81
2022-09-15T11:37:40.219Z,99135.31
2022-09-15T11:39:50.206Z,99139.44
2022-09-15T11:42:01.625Z,99134.66
2022-09-15T11:44:22.446Z,99129.28
2022-09-15T11:46:45.289Z,99133.28
2022-09-15T11:49:07.936Z,99137.19
2022-09-15T11:51:13.638Z,99132.06
2022-09-15T11:53:38.158Z,99128.41
2022-09-15T11:55:51.606Z,99133.06
2022-09-15T11:57:56.258Z,99131.31
2022-09-15T12:00:07.780Z,99122.28
2022-09-15T12:02:40.436Z,99125.19
2022-09-15T12:05:07.191Z,99130.28
2022-09-15T12:07:23.999Z,99127.63
2022-09-15T12:09:26.370Z,99132.59
2022-09-15T12:11:33.769Z,99133.38
2022-09-15T12:13:37.773Z,99133.31
2022-09-15T12:15:41.762Z,99139.94
2022-09-15T12:17:54.663Z,99141.84
2022-09-15T12:20:08.124Z,99134.09
2022-09-15T12:22:22.970Z,99129.47
2022-09-15T12:24:45.699Z,99140.72
2022-09-15T12:26:47.792Z,99142.72
2022-09-15T12:29:24.373Z,99145.09
2022-09-15T12:31:40.286Z,99146.03
2022-09-15T12:34:26.076Z,99150.50
2022-09-15T12:36:41.621Z,99163.16
2022-09-15T12:38:49.644Z,99152.63
2022-09-15T12:40:59.764Z,99155.03
2022-09-15T12:43:23.168Z,99146.13
2022-09-15T12:45:29.537Z,99142.09
2022-09-15T12:47:36.940Z,99154.59
2022-09-15T12:49:45.748Z,99151.38
2022-09-15T12:51:53.112Z,99148.97
2022-09-15T12:54:07.658Z,99148.47
2022-09-15T12:56:24.738Z,99136.78
2022-09-15T12:58:49.791Z,99137.38
2022-09-15T13:01:19.773Z,99133.00
2022-09-15T13:04:00.653Z,99141.69
2022-09-15T13:06:18.430Z,99144.31
2022-09-15T13:08:26.005Z,99143.72
2022-09-15T13:10:32.246Z,99133.72
2022-09-15T13:12:41.500Z,99132.47
2022-09-15T13:14:48.690Z,99130.81
2022-09-15T13:16:57.049Z,99129.50
2022-09-15T13:19:12.253Z,99135.38
2022-09-15T13:21:21.309Z,99137.25
2022-09-15T13:23:27.381Z,99136.16
2022-09-15T13:25:30.840Z,99130.44
2022-09-15T13:27:49.920Z,99135.69
2022-09-15T13:30:21.629Z,99123.75
2022-09-15T13:32:24.539Z,99128.78
2022-09-15T13:40:04.323Z,99125.78
2022-09-15T13:42:41.767Z,99113.00
2022-09-15T13:45:12.124Z,99105.19
2022-09-15T13:47:20.174Z,99109.25
2022-09-15T13:49:49.545Z,99100.59
2022-09-15T13:52:03.518Z,99100.88
2022-09-15T13:54:24.563Z,99093.16
2022-09-15T13:56:29.192Z,99093.25
2022-09-15T14:01:02.323Z,99102.09
2022-09-15T14:03:12.422Z,99100.53
2022-09-15T14:05:15.760Z,99101.22
2022-09-15T14:07:23.592Z,99104.78
2022-09-15T14:09:44.887Z,99099.84
2022-09-15T14:11:50.605Z,99095.22
2022-09-15T14:13:56.415Z,99100.91
2022-09-15T14:16:30.310Z,99091.72
2022-09-15T14:18:43.044Z,99093.84
2022-09-15T14:20:58.034Z,99088.72
2022-09-15T14:23:00.723Z,99097.75
2022-09-15T14:25:08.664Z,99089.63
2022-09-15T14:27:11.908Z,99085.59
2022-09-15T14:29:20.618Z,99087.59
2022-09-15T14:31:38.864Z,99086.22
2022-09-15T14:33:41.301Z,99075.84
2022-09-15T14:35:45.727Z,99075.56
2022-09-15T14:37:59.008Z,99077.78
2022-09-15T14:40:13.009Z,99079.56
2022-09-15T14:42:21.897Z,99072.88
2022-09-15T14:46:59.562Z,99065.28
2022-09-15T14:49:15.777Z,99071.41
2022-09-15T14:51:33.304Z,99071.63
2022-09-15T14:53:39.502Z,99071.06
2022-09-15T14:56:18.354Z,99069.63
2022-09-15T14:58:35.799Z,99071.16
2022-09-15T15:00:58.525Z,99064.59
2022-09-15T15:03:19.946Z,99065.84
2022-09-15T15:05:33.070Z,99069.31
2022-09-15T15:07:38.195Z,99067.84
2022-09-15T15:09:58.725Z,99073.84
2022-09-15T15:12:07.580Z,99068.16
2022-09-15T15:14:13.571Z,99067.50
2022-09-15T15:16:23.162Z,99068.97
2022-09-15T15:18:52.141Z,99068.56
2022-09-15T15:20:54.124Z,99064.97
2022-09-15T15:23:18.937Z,99055.22
2022-09-15T15:25:36.684Z,99055.38
2022-09-15T15:27:52.200Z,99051.78
2022-09-15T15:29:54.199Z,99055.72
2022-09-15T15:32:05.810Z,99048.03
2022-09-15T15:34:24.851Z,99063.97
2022-09-15T15:36:29.433Z,99051.38
2022-09-15T15:38:35.225Z,99057.63
2022-09-15T15:40:40.746Z,99057.47
2022-09-15T15:42:59.934Z,99060.00
2022-09-15T15:45:10.039Z,99051.16
2022-09-15T15:47:15.012Z,99052.88
2022-09-15T15:49:18.258Z,99055.84
2022-09-15T15:51:20.844Z,99065.03
2022-09-15T15:53:29.531Z,99056.31
2022-09-15T15:55:39.360Z,99058.28
2022-09-15T15:57:42.824Z,99066.91
2022-09-15T15:59:46.668Z,99059.03
2022-09-15T16:01:52.374Z,99063.53
2022-09-15T16:03:54.415Z,99081.59
2022-09-15T16:05:59.727Z,99076.59
2022-09-15T16:08:06.056Z,99072.31
2022-09-15T16:10:14.950Z,99078.72
2022-09-15T16:12:17.328Z,99073.94
2022-09-15T16:14:20.218Z,99074.44
2022-09-15T16:16:26.583Z,99077.13
2022-09-15T16:18:29.907Z,99074.09
2022-09-15T16:20:32.790Z,99072.88
2022-09-15T16:22:34.986Z,99074.50
2022-09-15T16:24:36.821Z,99070.41
2022-09-15T16:26:39.690Z,99076.78
2022-09-15T16:28:43.770Z,99080.16
2022-09-15T16:30:49.614Z,99076.59
2022-09-15T16:32:51.961Z,99078.09
2022-09-15T16:34:55.080Z,99079.09
2022-09-15T16:36:59.074Z,99079.94
2022-09-15T16:39:04.332Z,99084.75
2022-09-15T16:41:19.223Z,99081.41
2022-09-15T16:43:23.145Z,99082.50
2022-09-15T16:45:39.969Z,99084.16
2022-09-15T16:47:43.086Z,99083.25
2022-09-15T16:49:44.986Z,99083.25
2022-09-15T16:51:46.977Z,99081.75
2022-09-15T16:53:51.228Z,99087.63
2022-09-15T16:55:55.939Z,99083.06
2022-09-15T16:57:59.962Z,99090.75
2022-09-15T17:00:03.557Z,99095.13
2022-09-15T17:02:12.568Z,99107.94
2022-09-15T17:04:16.782Z,99093.72
2022-09-15T17:06:18.846Z,99103.59
2022-09-15T17:08:27.029Z,99102.66
2022-09-15T17:10:31.860Z,99104.22
2022-09-15T17:12:34.121Z,99106.31
2022-09-15T17:14:36.202Z,99116.91
2022-09-15T17:16:40.433Z,99116.06
2022-09-15T17:18:42.280Z,99115.16
2022-09-15T17:20:47.440Z,99116.75
2022-09-15T17:22:50.024Z,99118.50
2022-09-15T17:24:51.944Z,99118.63
2022-09-15T17:26:54.435Z,99112.63
2022-09-15T17:28:57.899Z,99119.19
2022-09-15T17:31:01.499Z,99117.78
2022-09-15T17:33:05.756Z,99117.06
2022-09-15T17:35:26.627Z,99114.00
2022-09-15T17:37:30.491Z,99118.44
2022-09-15T17:39:34.257Z,99117.25
2022-09-15T17:41:36.197Z,99126.13
2022-09-15T17:43:38.157Z,99122.31
2022-09-15T17:45:40.152Z,99117.94
2022-09-15T17:47:43.126Z,99134.13
2022-09-15T17:49:45.089Z,99126.72
2022-09-15T17:51:47.966Z,99139.59
2022-09-15T17:53:49.875Z,99141.84
2022-09-15T17:55:54.898Z,99132.19
2022-09-15T17:57:58.779Z,99141.56
2022-09-15T18:00:00.999Z,99144.50
2022-09-15T18:02:11.371Z,99142.94
2022-09-15T18:04:13.634Z,99141.97
2022-09-15T18:06:15.692Z,99149.88
2022-09-15T18:08:18.741Z,99142.56
2022-09-15T18:10:21.776Z,99146.44
2022-09-15T18:12:23.953Z,99149.06
2022-09-15T18:14:25.979Z,99148.16
2022-09-15T18:16:27.910Z,99142.78
2022-09-15T18:18:31.049Z,99143.81
2022-09-15T18:20:34.086Z,99146.19
2022-09-15T18:22:36.242Z,99144.00
2022-09-15T18:24:38.606Z,99139.06
2022-09-15T18:26:47.336Z,99137.19
2022-09-15T18:28:50.368Z,99140.63
2022-09-15T18:30:52.837Z,99137.34
2022-09-15T18:32:55.200Z,99137.59
2022-09-15T18:34:57.232Z,99148.16
2022-09-15T18:37:00.408Z,99143.97
2022-09-15T18:39:02.692Z,99143.97
2022-09-15T18:41:12.100Z,99141.63
2022-09-15T18:43:14.310Z,99140.81
2022-09-15T18:45:18.370Z,99143.63
2022-09-15T18:47:21.261Z,99141.78
2022-09-15T18:49:23.432Z,99142.84
2022-09-15T18:51:40.875Z,99141.34
2022-09-15T18:53:54.035Z,99145.00
2022-09-15T18:55:56.513Z,99147.09
2022-09-15T18:58:00.989Z,99147.53
2022-09-15T19:00:18.227Z,99148.84
2022-09-15T19:02:21.582Z,99154.81
2022-09-15T19:04:26.363Z,99152.59
2022-09-15T19:06:31.976Z,99155.03
2022-09-15T19:08:36.663Z,99152.50
2022-09-15T19:10:44.377Z,99155.44
2022-09-15T19:12:46.747Z,99158.94
2022-09-15T19:14:49.003Z,99159.19
2022-09-15T19:16:58.126Z,99158.69
2022-09-15T19:19:00.876Z,99152.13
2022-09-15T19:21:08.541Z,99158.56
2022-09-15T19:23:11.062Z,99157.28
2022-09-15T19:25:13.879Z,99158.22
2022-09-15T19:27:18.049Z,99158.06
2022-09-15T19:29:20.274Z,99151.03
2022-09-15T19:31:23.837Z,99150.56
2022-09-15T19:33:26.578Z,99154.22
2022-09-15T19:35:30.065Z,99162.78
2022-09-15T19:37:32.275Z,99168.50
2022-09-15T19:39:37.475Z,99168.75
2022-09-15T19:41:40.469Z,99168.66
2022-09-15T19:43:44.701Z,99166.78
2022-09-15T19:45:46.837Z,99161.13
2022-09-15T19:47:49.863Z,99166.78
2022-09-15T19:49:52.655Z,99165.13
2022-09-15T19:51:57.537Z,99173.91
2022-09-15T19:53:59.896Z,99162.06
2022-09-15T19:56:01.911Z,99173.91
2022-09-15T19:58:03.837Z,99173.47
2022-09-15T20:00:07.771Z,99174.16
2022-09-15T20:02:11.057Z,99172.84
2022-09-15T20:06:33.932Z,99178.50
2022-09-15T20:08:36.716Z,99172.72
2022-09-15T20:10:39.865Z,99181.97
2022-09-15T20:12:41.735Z,99177.63
2022-09-15T20:14:43.497Z,99179.03
2022-09-15T20:16:45.366Z,99188.63
2022-09-15T20:18:48.513Z,99188.41
2022-09-15T20:20:53.872Z,99188.25
2022-09-15T20:22:55.714Z,99187.28
2022-09-15T20:24:59.547Z,99179.16
2022-09-15T20:27:01.422Z,99182.38
2022-09-15T20:29:10.529Z,99187.66
2022-09-15T20:31:22.058Z,99186.72
2022-09-15T20:33:26.435Z,99181.84
2022-09-15T20:35:28.363Z,99179.38
2022-09-15T20:37:33.009Z,99182.84
2022-09-15T20:39:37.240Z,99187.03
2022-09-15T20:41:40.225Z,99182.47
2022-09-15T20:43:42.762Z,99186.91
2022-09-15T20:45:54.979Z,99184.22
2022-09-15T20:47:57.827Z,99185.03
2022-09-15T20:49:59.732Z,99190.88
2022-09-15T20:52:01.717Z,99184.78
2022-09-15T20:54:05.500Z,99195.00
2022-09-15T20:56:07.930Z,99198.31
2022-09-15T20:58:11.099Z,99192.59
2022-09-15T21:00:13.648Z,99195.56
2022-09-15T21:02:15.556Z,99194.16
2022-09-15T21:04:17.503Z,99190.09
2022-09-15T21:06:21.436Z,99196.59
2022-09-15T21:08:23.255Z,99193.78
2022-09-15T21:10:25.185Z,99195.03
2022-09-15T21:12:27.640Z,99199.88
2022-09-15T21:14:29.610Z,99208.44
2022-09-15T21:16:34.427Z,99204.75
2022-09-15T21:18:39.076Z,99201.72
2022-09-15T21:20:40.881Z,99210.69
2022-09-15T21:22:42.661Z,99211.56
2022-09-15T21:24:44.574Z,99216.94
2022-09-15T21:27:04.826Z,99215.75
2022-09-15T21:29:08.667Z,99220.06
2022-09-15T21:31:16.554Z,99219.28
2022-09-15T21:33:20.696Z,99226.19
2022-09-15T21:35:22.553Z,99224.72
2022-09-15T21:37:27.221Z,99227.25
2022-09-15T21:39:30.026Z,99227.03
2022-09-15T21:41:32.017Z,99232.78
2022-09-15T21:43:37.793Z,99233.22
2022-09-15T21:45:40.769Z,99239.44
2022-09-15T21:47:43.665Z,99245.66
2022-09-15T21:49:46.518Z,99237.59
2022-09-15T21:51:48.830Z,99242.16
2022-09-15T21:53:51.457Z,99241.59
2022-09-15T21:55:53.748Z,99241.38
2022-09-15T21:57:55.644Z,99245.34
2022-09-15T21:59:58.520Z,99242.44
2022-09-15T22:02:00.994Z,99252.59
2022-09-15T22:04:06.610Z,99249.06
2022-09-15T22:06:13.721Z,99253.81
2022-09-15T22:08:16.815Z,99250.31
2022-09-15T22:10:25.561Z,99252.59
2022-09-15T22:12:29.363Z,99252.78
2022-09-15T22:14:32.282Z,99256.31
2022-09-15T22:16:39.930Z,99255.69
2022-09-15T22:18:42.900Z,99253.81
2022-09-15T22:20:44.795Z,99259.44
2022-09-15T22:22:46.701Z,99261.06
2022-09-15T22:24:48.713Z,99261.72
2022-09-15T22:26:50.600Z,99263.97
2022-09-15T22:28:55.483Z,99265.03
2022-09-15T22:31:01.768Z,99269.38
2022-09-15T22:33:03.690Z,99268.94
2022-09-15T22:35:11.658Z,99269.75
2022-09-15T22:37:13.558Z,99274.13
2022-09-15T22:39:16.382Z,99276.38
2022-09-15T22:41:19.899Z,99284.41
2022-09-15T22:43:22.550Z,99277.03
2022-09-15T22:45:24.448Z,99284.22
2022-09-15T22:47:29.471Z,99286.50
2022-09-15T22:49:31.315Z,99278.44
2022-09-15T22:51:34.153Z,99277.00
2022-09-15T22:53:36.031Z,99278.03
2022-09-15T22:55:37.952Z,99279.47
2022-09-15T22:57:41.900Z,99280.09
2022-09-15T22:59:43.891Z,99285.06
2022-09-15T23:01:51.843Z,99283.41
2022-09-15T23:03:59.564Z,99276.78
2022-09-15T23:06:02.410Z,99279.28
2022-09-15T23:08:05.427Z,99283.78
2022-09-15T23:10:09.460Z,99282.75
2022-09-15T23:12:11.390Z,99285.25
2022-09-15T23:14:16.609Z,99279.06
2022-09-15T23:16:18.548Z,99288.75
2022-09-15T23:18:20.484Z,99289.38
2022-09-15T23:20:22.331Z,99287.50
2022-09-15T23:22:24.133Z,99287.34
2022-09-15T23:24:27.018Z,99291.03
2022-09-15T23:26:28.877Z,99292.69
2022-09-15T23:28:32.031Z,99287.34
2022-09-15T23:30:35.948Z,99289.38
2022-09-15T23:32:38.920Z,99282.78
2022-09-15T23:34:40.814Z,99279.06
2022-09-15T23:36:42.710Z,99285.88
2022-09-15T23:38:52.656Z,99289.59
2022-09-15T23:40:54.799Z,99289.59
2022-09-15T23:42:57.660Z,99289.00
2022-09-15T23:45:01.615Z,99293.91
2022-09-15T23:47:06.766Z,99290.22
2022-09-15T23:49:08.760Z,99287.34
2022-09-15T23:51:10.809Z,99294.78
2022-09-15T23:53:13.828Z,99289.00
2022-09-15T23:55:16.779Z,99297.03
2022-09-15T23:57:22.676Z,99294.97
2022-09-15T23:59:25.043Z,99288.16
